sensor_id;sensor_type;location;lat;lon;timestamp;P1;durP1;ratioP1;P2;durP2;ratioP2
63114;SDS011;49208;50.874;6.466;2022-11-30T06:03:40;45.22;;;17.13;;
63114;SDS011;49208;50.874;6.466;2022-11-30T06:06:06;38.00;;;18.02;;
63114;SDS011;49208;50.874;6.466;2022-11-30T06:08:31;35.28;;;16.75;;
63114;SDS011;49208;50.874;6.466;2022-11-30T06:10:58;38.47;;;17.10;;
63114;SDS011;49208;50.874;6.466;2022-11-30T06:13:24;39.30;;;16.98;;
63114;SDS011;49208;50.874;6.466;2022-11-30T06:15:50;36.65;;;16.00;;
63114;SDS011;49208;50.874;6.466;2022-11-30T06:18:15;37.85;;;16.80;;
63114;SDS011;49208;50.874;6.466;2022-11-30T06:20:41;30.65;;;14.55;;
63114;SDS011;49208;50.874;6.466;2022-11-30T06:23:06;34.28;;;15.88;;
63114;SDS011;49208;50.874;6.466;2022-11-30T06:25:31;38.47;;;17.95;;
63114;SDS011;49208;50.874;6.466;2022-11-30T06:27:57;38.20;;;17.73;;
63114;SDS011;49208;50.874;6.466;2022-11-30T06:30:22;40.30;;;19.27;;
63114;SDS011;49208;50.874;6.466;2022-11-30T06:32:50;36.67;;;17.05;;
63114;SDS011;49208;50.874;6.466;2022-11-30T06:35:16;39.35;;;18.13;;
63114;SDS011;49208;50.874;6.466;2022-11-30T06:37:42;35.97;;;16.63;;
63114;SDS011;49208;50.874;6.466;2022-11-30T06:40:08;36.72;;;17.27;;
63114;SDS011;49208;50.874;6.466;2022-11-30T06:42:35;40.50;;;17.52;;
63114;SDS011;49208;50.874;6.466;2022-11-30T06:45:01;38.30;;;16.85;;
63114;SDS011;49208;50.874;6.466;2022-11-30T06:47:28;32.08;;;16.75;;
63114;SDS011;49208;50.874;6.466;2022-11-30T06:49:53;37.75;;;18.77;;
63114;SDS011;49208;50.874;6.466;2022-11-30T06:52:19;36.00;;;16.27;;
63114;SDS011;49208;50.874;6.466;2022-11-30T06:54:45;40.50;;;17.02;;
63114;SDS011;49208;50.874;6.466;2022-11-30T06:57:10;40.30;;;17.02;;
63114;SDS011;49208;50.874;6.466;2022-11-30T06:59:36;33.45;;;16.85;;
63114;SDS011;49208;50.874;6.466;2022-11-30T07:02:07;39.17;;;18.30;;
63114;SDS011;49208;50.874;6.466;2022-11-30T07:04:36;40.00;;;17.95;;
63114;SDS011;49208;50.874;6.466;2022-11-30T07:07:02;39.53;;;17.65;;
63114;SDS011;49208;50.874;6.466;2022-11-30T07:09:27;43.22;;;18.50;;
63114;SDS011;49208;50.874;6.466;2022-11-30T07:11:52;37.17;;;17.60;;
63114;SDS011;49208;50.874;6.466;2022-11-30T07:14:18;39.45;;;18.60;;
63114;SDS011;49208;50.874;6.466;2022-11-30T07:16:43;40.63;;;18.42;;
63114;SDS011;49208;50.874;6.466;2022-11-30T07:19:08;36.80;;;16.27;;
63114;SDS011;49208;50.874;6.466;2022-11-30T07:21:34;36.00;;;18.17;;
63114;SDS011;49208;50.874;6.466;2022-11-30T07:23:59;38.83;;;17.73;;
63114;SDS011;49208;50.874;6.466;2022-11-30T07:26:43;37.85;;;17.60;;
63114;SDS011;49208;50.874;6.466;2022-11-30T07:29:08;35.38;;;16.95;;
63114;SDS011;49208;50.874;6.466;2022-11-30T07:31:34;41.55;;;18.75;;
63114;SDS011;49208;50.874;6.466;2022-11-30T07:34:02;40.17;;;18.00;;
63114;SDS011;49208;50.874;6.466;2022-11-30T07:36:30;35.80;;;17.48;;
63114;SDS011;49208;50.874;6.466;2022-11-30T07:38:56;35.42;;;15.52;;
63114;SDS011;49208;50.874;6.466;2022-11-30T07:41:22;34.20;;;15.93;;
63114;SDS011;49208;50.874;6.466;2022-11-30T07:43:48;36.47;;;16.08;;
63114;SDS011;49208;50.874;6.466;2022-11-30T07:46:14;35.05;;;17.35;;
63114;SDS011;49208;50.874;6.466;2022-11-30T07:48:40;38.47;;;16.45;;
63114;SDS011;49208;50.874;6.466;2022-11-30T07:51:09;32.15;;;15.77;;
63114;SDS011;49208;50.874;6.466;2022-11-30T07:53:38;39.10;;;18.15;;
63114;SDS011;49208;50.874;6.466;2022-11-30T07:56:04;33.63;;;14.85;;
63114;SDS011;49208;50.874;6.466;2022-11-30T07:58:30;36.70;;;17.27;;
63114;SDS011;49208;50.874;6.466;2022-11-30T08:01:02;41.70;;;18.83;;
63114;SDS011;49208;50.874;6.466;2022-11-30T08:03:30;34.47;;;16.45;;
63114;SDS011;49208;50.874;6.466;2022-11-30T08:08:31;35.58;;;16.17;;
63114;SDS011;49208;50.874;6.466;2022-11-30T08:10:58;35.25;;;18.38;;
63114;SDS011;49208;50.874;6.466;2022-11-30T08:13:25;43.95;;;19.63;;
63114;SDS011;49208;50.874;6.466;2022-11-30T08:15:51;38.53;;;16.15;;
63114;SDS011;49208;50.874;6.466;2022-11-30T08:18:17;35.42;;;17.52;;
63114;SDS011;49208;50.874;6.466;2022-11-30T08:20:42;38.33;;;18.63;;
63114;SDS011;49208;50.874;6.466;2022-11-30T08:23:07;39.38;;;17.42;;
63114;SDS011;49208;50.874;6.466;2022-11-30T08:25:33;32.40;;;16.48;;
63114;SDS011;49208;50.874;6.466;2022-11-30T08:27:59;41.97;;;18.23;;
63114;SDS011;49208;50.874;6.466;2022-11-30T08:30:24;33.30;;;15.63;;
63114;SDS011;49208;50.874;6.466;2022-11-30T08:32:50;37.35;;;17.48;;
63114;SDS011;49208;50.874;6.466;2022-11-30T08:35:15;38.22;;;14.80;;
63114;SDS011;49208;50.874;6.466;2022-11-30T08:37:41;33.28;;;15.60;;
63114;SDS011;49208;50.874;6.466;2022-11-30T08:40:06;33.45;;;15.60;;
63114;SDS011;49208;50.874;6.466;2022-11-30T08:42:32;36.50;;;18.13;;
63114;SDS011;49208;50.874;6.466;2022-11-30T08:44:57;28.00;;;15.82;;
63114;SDS011;49208;50.874;6.466;2022-11-30T08:47:23;37.72;;;16.80;;
63114;SDS011;49208;50.874;6.466;2022-11-30T08:49:48;33.47;;;15.88;;
63114;SDS011;49208;50.874;6.466;2022-11-30T08:52:13;31.65;;;14.40;;
63114;SDS011;49208;50.874;6.466;2022-11-30T08:54:40;31.77;;;14.60;;
63114;SDS011;49208;50.874;6.466;2022-11-30T08:57:08;29.05;;;14.18;;
63114;SDS011;49208;50.874;6.466;2022-11-30T08:59:34;31.33;;;15.48;;
63114;SDS011;49208;50.874;6.466;2022-11-30T09:01:59;28.17;;;13.05;;
63114;SDS011;49208;50.874;6.466;2022-11-30T09:04:25;33.03;;;16.10;;
63114;SDS011;49208;50.874;6.466;2022-11-30T09:06:50;35.17;;;14.80;;
63114;SDS011;49208;50.874;6.466;2022-11-30T09:09:16;32.65;;;16.20;;
63114;SDS011;49208;50.874;6.466;2022-11-30T09:11:41;38.53;;;16.38;;
63114;SDS011;49208;50.874;6.466;2022-11-30T09:14:07;40.38;;;18.13;;
63114;SDS011;49208;50.874;6.466;2022-11-30T09:16:33;35.67;;;17.23;;
63114;SDS011;49208;50.874;6.466;2022-11-30T09:19:00;35.70;;;17.73;;
63114;SDS011;49208;50.874;6.466;2022-11-30T09:21:26;32.90;;;14.73;;
63114;SDS011;49208;50.874;6.466;2022-11-30T09:23:51;36.55;;;16.52;;
63114;SDS011;49208;50.874;6.466;2022-11-30T09:26:18;34.10;;;15.85;;
63114;SDS011;49208;50.874;6.466;2022-11-30T09:28:45;34.97;;;16.38;;
63114;SDS011;49208;50.874;6.466;2022-11-30T09:31:12;34.15;;;14.65;;
63114;SDS011;49208;50.874;6.466;2022-11-30T09:33:40;36.42;;;16.15;;
63114;SDS011;49208;50.874;6.466;2022-11-30T09:36:07;37.30;;;16.92;;
63114;SDS011;49208;50.874;6.466;2022-11-30T09:38:34;34.65;;;16.30;;
63114;SDS011;49208;50.874;6.466;2022-11-30T09:41:03;35.92;;;17.52;;
63114;SDS011;49208;50.874;6.466;2022-11-30T09:46:02;39.40;;;18.95;;
63114;SDS011;49208;50.874;6.466;2022-11-30T09:54:04;32.25;;;14.93;;
63114;SDS011;49208;50.874;6.466;2022-11-30T09:56:36;37.58;;;17.35;;
63114;SDS011;49208;50.874;6.466;2022-11-30T09:59:03;40.55;;;18.17;;
63114;SDS011;49208;50.874;6.466;2022-11-30T10:01:37;36.08;;;17.52;;
63114;SDS011;49208;50.874;6.466;2022-11-30T10:04:03;38.40;;;18.02;;
63114;SDS011;49208;50.874;6.466;2022-11-30T10:06:33;35.63;;;17.67;;
63114;SDS011;49208;50.874;6.466;2022-11-30T10:12:20;38.00;;;17.55;;
63114;SDS011;49208;50.874;6.466;2022-11-30T10:17:45;36.75;;;18.27;;
63114;SDS011;49208;50.874;6.466;2022-11-30T10:20:21;36.10;;;18.55;;
63114;SDS011;49208;50.874;6.466;2022-11-30T10:26:44;36.72;;;17.30;;
63114;SDS011;49208;50.874;6.466;2022-11-30T10:28:51;38.22;;;17.58;;
63114;SDS011;49208;50.874;6.466;2022-11-30T10:31:27;39.08;;;18.55;;
63114;SDS011;49208;50.874;6.466;2022-11-30T10:33:56;39.30;;;19.45;;
63114;SDS011;49208;50.874;6.466;2022-11-30T10:36:35;37.90;;;19.42;;
63114;SDS011;49208;50.874;6.466;2022-11-30T10:39:04;39.25;;;18.10;;
63114;SDS011;49208;50.874;6.466;2022-11-30T10:41:41;38.33;;;18.95;;
63114;SDS011;49208;50.874;6.466;2022-11-30T10:44:16;40.65;;;18.02;;
63114;SDS011;49208;50.874;6.466;2022-11-30T10:47:02;37.88;;;18.65;;
63114;SDS011;49208;50.874;6.466;2022-11-30T10:49:35;38.13;;;18.13;;
63114;SDS011;49208;50.874;6.466;2022-11-30T10:52:07;41.67;;;18.73;;
63114;SDS011;49208;50.874;6.466;2022-11-30T10:54:34;39.28;;;18.42;;
63114;SDS011;49208;50.874;6.466;2022-11-30T10:57:01;36.30;;;17.50;;
63114;SDS011;49208;50.874;6.466;2022-11-30T10:59:40;32.83;;;16.90;;
63114;SDS011;49208;50.874;6.466;2022-11-30T11:10:24;35.78;;;17.63;;
63114;SDS011;49208;50.874;6.466;2022-11-30T11:12:54;33.38;;;17.10;;
63114;SDS011;49208;50.874;6.466;2022-11-30T11:15:28;36.60;;;17.58;;
63114;SDS011;49208;50.874;6.466;2022-11-30T11:20:40;39.15;;;17.88;;
63114;SDS011;49208;50.874;6.466;2022-11-30T11:23:17;34.97;;;16.73;;
63114;SDS011;49208;50.874;6.466;2022-11-30T11:25:51;39.42;;;18.52;;
63114;SDS011;49208;50.874;6.466;2022-11-30T11:28:17;33.33;;;16.10;;
63114;SDS011;49208;50.874;6.466;2022-11-30T11:30:45;42.75;;;18.52;;
63114;SDS011;49208;50.874;6.466;2022-11-30T11:35:41;41.38;;;19.40;;
63114;SDS011;49208;50.874;6.466;2022-11-30T11:43:19;37.17;;;18.60;;
63114;SDS011;49208;50.874;6.466;2022-11-30T11:45:49;41.80;;;19.42;;
63114;SDS011;49208;50.874;6.466;2022-11-30T11:48:30;38.20;;;17.23;;
63114;SDS011;49208;50.874;6.466;2022-11-30T11:51:03;37.15;;;17.50;;
63114;SDS011;49208;50.874;6.466;2022-11-30T11:53:41;37.42;;;18.60;;
63114;SDS011;49208;50.874;6.466;2022-11-30T11:56:12;42.70;;;17.30;;
63114;SDS011;49208;50.874;6.466;2022-11-30T12:01:20;37.53;;;17.88;;
63114;SDS011;49208;50.874;6.466;2022-11-30T12:06:53;37.00;;;17.52;;
63114;SDS011;49208;50.874;6.466;2022-11-30T12:11:48;38.00;;;17.85;;
63114;SDS011;49208;50.874;6.466;2022-11-30T12:14:15;33.15;;;16.33;;
63114;SDS011;49208;50.874;6.466;2022-11-30T12:22:45;42.63;;;22.17;;
63114;SDS011;49208;50.874;6.466;2022-11-30T12:25:43;38.25;;;19.02;;
63114;SDS011;49208;50.874;6.466;2022-11-30T12:28:18;39.40;;;17.70;;
63114;SDS011;49208;50.874;6.466;2022-11-30T12:30:59;38.75;;;18.42;;
63114;SDS011;49208;50.874;6.466;2022-11-30T12:41:28;40.72;;;18.38;;
63114;SDS011;49208;50.874;6.466;2022-11-30T12:57:58;32.38;;;17.63;;
63114;SDS011;49208;50.874;6.466;2022-11-30T13:00:54;56.33;;;25.73;;
63114;SDS011;49208;50.874;6.466;2022-11-30T13:08:41;38.03;;;19.67;;
63114;SDS011;49208;50.874;6.466;2022-11-30T13:11:16;38.88;;;19.05;;
63114;SDS011;49208;50.874;6.466;2022-11-30T13:13:50;40.45;;;17.83;;
63114;SDS011;49208;50.874;6.466;2022-11-30T13:16:19;40.83;;;20.50;;
63114;SDS011;49208;50.874;6.466;2022-11-30T13:18:47;39.00;;;18.85;;
63114;SDS011;49208;50.874;6.466;2022-11-30T13:21:20;37.60;;;19.35;;
63114;SDS011;49208;50.874;6.466;2022-11-30T13:27:20;40.38;;;18.30;;
63114;SDS011;49208;50.874;6.466;2022-11-30T13:32:32;34.63;;;17.77;;
63114;SDS011;49208;50.874;6.466;2022-11-30T13:38:15;35.88;;;17.83;;
63114;SDS011;49208;50.874;6.466;2022-11-30T13:40:41;34.75;;;17.63;;
63114;SDS011;49208;50.874;6.466;2022-11-30T13:43:23;36.45;;;19.05;;
63114;SDS011;49208;50.874;6.466;2022-11-30T13:46:05;38.65;;;18.08;;
63114;SDS011;49208;50.874;6.466;2022-11-30T13:48:38;38.20;;;18.50;;
63114;SDS011;49208;50.874;6.466;2022-11-30T13:53:31;38.30;;;18.35;;
63114;SDS011;49208;50.874;6.466;2022-11-30T14:01:48;36.72;;;18.70;;
63114;SDS011;49208;50.874;6.466;2022-11-30T14:06:44;38.15;;;18.90;;
63114;SDS011;49208;50.874;6.466;2022-11-30T14:09:15;40.17;;;17.50;;
63114;SDS011;49208;50.874;6.466;2022-11-30T14:14:57;42.08;;;22.48;;
63114;SDS011;49208;50.874;6.466;2022-11-30T14:17:25;41.05;;;21.25;;
63114;SDS011;49208;50.874;6.466;2022-11-30T14:19:59;46.33;;;22.80;;
63114;SDS011;49208;50.874;6.466;2022-11-30T14:22:33;43.60;;;21.20;;
63114;SDS011;49208;50.874;6.466;2022-11-30T14:24:59;43.00;;;21.42;;
63114;SDS011;49208;50.874;6.466;2022-11-30T14:29:54;39.78;;;19.10;;
63114;SDS011;49208;50.874;6.466;2022-11-30T14:32:38;41.40;;;18.33;;
63114;SDS011;49208;50.874;6.466;2022-11-30T14:35:14;48.75;;;22.90;;
63114;SDS011;49208;50.874;6.466;2022-11-30T14:38:01;40.35;;;20.85;;
63114;SDS011;49208;50.874;6.466;2022-11-30T14:43:13;39.58;;;19.33;;
63114;SDS011;49208;50.874;6.466;2022-11-30T14:45:41;44.67;;;20.15;;
63114;SDS011;49208;50.874;6.466;2022-11-30T14:48:09;47.10;;;20.63;;
63114;SDS011;49208;50.874;6.466;2022-11-30T14:50:41;38.53;;;19.25;;
63114;SDS011;49208;50.874;6.466;2022-11-30T14:53:13;38.72;;;18.17;;
63114;SDS011;49208;50.874;6.466;2022-11-30T14:55:48;40.90;;;19.60;;
63114;SDS011;49208;50.874;6.466;2022-11-30T15:01:14;40.13;;;18.20;;
63114;SDS011;49208;50.874;6.466;2022-11-30T15:03:49;38.47;;;18.50;;
63114;SDS011;49208;50.874;6.466;2022-11-30T15:06:17;39.97;;;19.85;;
63114;SDS011;49208;50.874;6.466;2022-11-30T15:08:50;40.13;;;20.92;;
63114;SDS011;49208;50.874;6.466;2022-11-30T15:11:17;35.72;;;17.77;;
63114;SDS011;49208;50.874;6.466;2022-11-30T15:13:48;36.03;;;17.17;;
63114;SDS011;49208;50.874;6.466;2022-11-30T15:18:43;35.65;;;16.98;;
63114;SDS011;49208;50.874;6.466;2022-11-30T15:21:11;36.42;;;16.05;;
63114;SDS011;49208;50.874;6.466;2022-11-30T15:23:41;33.55;;;14.77;;
63114;SDS011;49208;50.874;6.466;2022-11-30T15:26:27;24.05;;;13.23;;
63114;SDS011;49208;50.874;6.466;2022-11-30T15:29:05;34.85;;;16.10;;
63114;SDS011;49208;50.874;6.466;2022-11-30T15:31:34;37.42;;;17.92;;
63114;SDS011;49208;50.874;6.466;2022-11-30T15:34:03;35.45;;;17.35;;
63114;SDS011;49208;50.874;6.466;2022-11-30T15:36:36;36.80;;;16.80;;
63114;SDS011;49208;50.874;6.466;2022-11-30T15:39:04;33.92;;;17.60;;
63114;SDS011;49208;50.874;6.466;2022-11-30T15:41:32;41.70;;;18.30;;
63114;SDS011;49208;50.874;6.466;2022-11-30T15:43:59;37.45;;;18.52;;
63114;SDS011;49208;50.874;6.466;2022-11-30T15:51:41;38.20;;;17.67;;
63114;SDS011;49208;50.874;6.466;2022-11-30T15:54:08;35.58;;;18.40;;
63114;SDS011;49208;50.874;6.466;2022-11-30T15:56:34;33.67;;;18.67;;
63114;SDS011;49208;50.874;6.466;2022-11-30T16:01:49;34.22;;;15.85;;
63114;SDS011;49208;50.874;6.466;2022-11-30T16:04:25;30.83;;;14.10;;
63114;SDS011;49208;50.874;6.466;2022-11-30T16:06:51;27.77;;;13.70;;
63114;SDS011;49208;50.874;6.466;2022-11-30T16:11:53;34.70;;;17.52;;
63114;SDS011;49208;50.874;6.466;2022-11-30T16:14:21;34.97;;;17.85;;
63114;SDS011;49208;50.874;6.466;2022-11-30T16:16:46;33.92;;;16.20;;
63114;SDS011;49208;50.874;6.466;2022-11-30T16:19:12;32.92;;;16.13;;
63114;SDS011;49208;50.874;6.466;2022-11-30T16:21:38;32.00;;;15.85;;
63114;SDS011;49208;50.874;6.466;2022-11-30T16:24:04;34.60;;;18.17;;
63114;SDS011;49208;50.874;6.466;2022-11-30T16:26:29;30.33;;;16.58;;
63114;SDS011;49208;50.874;6.466;2022-11-30T16:28:58;27.05;;;14.52;;
63114;SDS011;49208;50.874;6.466;2022-11-30T16:31:23;29.80;;;15.80;;
63114;SDS011;49208;50.874;6.466;2022-11-30T16:33:49;29.75;;;14.95;;
63114;SDS011;49208;50.874;6.466;2022-11-30T16:36:16;30.75;;;14.88;;
63114;SDS011;49208;50.874;6.466;2022-11-30T16:38:48;27.92;;;14.75;;
63114;SDS011;49208;50.874;6.466;2022-11-30T16:43:47;30.80;;;14.35;;
63114;SDS011;49208;50.874;6.466;2022-11-30T16:46:15;29.77;;;15.00;;
63114;SDS011;49208;50.874;6.466;2022-11-30T16:48:51;26.55;;;13.38;;
63114;SDS011;49208;50.874;6.466;2022-11-30T16:53:58;30.00;;;14.68;;
63114;SDS011;49208;50.874;6.466;2022-11-30T16:56:24;22.33;;;11.15;;
63114;SDS011;49208;50.874;6.466;2022-11-30T16:58:49;24.83;;;12.70;;
63114;SDS011;49208;50.874;6.466;2022-11-30T17:01:25;25.15;;;12.13;;
63114;SDS011;49208;50.874;6.466;2022-11-30T17:03:56;26.27;;;13.18;;
63114;SDS011;49208;50.874;6.466;2022-11-30T17:06:22;30.73;;;15.32;;
63114;SDS011;49208;50.874;6.466;2022-11-30T17:08:49;28.60;;;14.93;;
63114;SDS011;49208;50.874;6.466;2022-11-30T17:11:19;28.65;;;14.23;;
63114;SDS011;49208;50.874;6.466;2022-11-30T17:13:50;28.17;;;13.63;;
63114;SDS011;49208;50.874;6.466;2022-11-30T17:16:16;25.52;;;14.75;;
63114;SDS011;49208;50.874;6.466;2022-11-30T17:18:41;30.38;;;16.08;;
63114;SDS011;49208;50.874;6.466;2022-11-30T17:21:09;24.30;;;13.05;;
63114;SDS011;49208;50.874;6.466;2022-11-30T17:23:37;31.20;;;17.40;;
63114;SDS011;49208;50.874;6.466;2022-11-30T17:26:02;32.60;;;15.40;;
63114;SDS011;49208;50.874;6.466;2022-11-30T17:28:27;27.70;;;15.88;;
63114;SDS011;49208;50.874;6.466;2022-11-30T17:30:53;29.95;;;15.15;;
63114;SDS011;49208;50.874;6.466;2022-11-30T17:33:18;29.35;;;15.95;;
63114;SDS011;49208;50.874;6.466;2022-11-30T17:35:43;44.03;;;25.58;;
63114;SDS011;49208;50.874;6.466;2022-11-30T17:38:09;34.38;;;18.70;;
63114;SDS011;49208;50.874;6.466;2022-11-30T17:40:34;28.77;;;17.83;;
63114;SDS011;49208;50.874;6.466;2022-11-30T17:42:59;28.92;;;15.73;;
63114;SDS011;49208;50.874;6.466;2022-11-30T17:45:25;30.55;;;14.90;;
63114;SDS011;49208;50.874;6.466;2022-11-30T17:47:50;28.00;;;15.00;;
63114;SDS011;49208;50.874;6.466;2022-11-30T17:50:16;32.83;;;17.23;;
63114;SDS011;49208;50.874;6.466;2022-11-30T17:52:41;34.28;;;18.70;;
63114;SDS011;49208;50.874;6.466;2022-11-30T17:55:06;31.52;;;16.60;;
63114;SDS011;49208;50.874;6.466;2022-11-30T17:57:32;31.95;;;15.38;;
63114;SDS011;49208;50.874;6.466;2022-11-30T17:59:58;33.88;;;20.27;;
63114;SDS011;49208;50.874;6.466;2022-11-30T18:02:23;37.42;;;21.73;;
63114;SDS011;49208;50.874;6.466;2022-11-30T18:04:48;35.65;;;19.02;;
63114;SDS011;49208;50.874;6.466;2022-11-30T18:09:41;34.90;;;18.42;;
63114;SDS011;49208;50.874;6.466;2022-11-30T18:12:07;28.02;;;15.65;;
63114;SDS011;49208;50.874;6.466;2022-11-30T18:14:32;30.85;;;15.63;;
63114;SDS011;49208;50.874;6.466;2022-11-30T18:16:58;39.28;;;16.85;;
63114;SDS011;49208;50.874;6.466;2022-11-30T18:19:23;32.70;;;15.23;;
63114;SDS011;49208;50.874;6.466;2022-11-30T18:21:48;36.78;;;16.50;;
63114;SDS011;49208;50.874;6.466;2022-11-30T18:24:14;38.13;;;18.30;;
63114;SDS011;49208;50.874;6.466;2022-11-30T18:26:39;39.45;;;17.30;;
63114;SDS011;49208;50.874;6.466;2022-11-30T18:29:05;34.35;;;16.98;;
63114;SDS011;49208;50.874;6.466;2022-11-30T18:31:31;33.60;;;18.85;;
63114;SDS011;49208;50.874;6.466;2022-11-30T18:33:57;35.40;;;16.90;;
63114;SDS011;49208;50.874;6.466;2022-11-30T18:36:28;33.97;;;16.63;;
63114;SDS011;49208;50.874;6.466;2022-11-30T18:38:54;35.95;;;17.25;;
63114;SDS011;49208;50.874;6.466;2022-11-30T18:41:19;33.22;;;16.88;;
63114;SDS011;49208;50.874;6.466;2022-11-30T18:43:47;36.40;;;17.77;;
63114;SDS011;49208;50.874;6.466;2022-11-30T18:46:12;34.45;;;17.85;;
63114;SDS011;49208;50.874;6.466;2022-11-30T18:48:38;31.52;;;15.73;;
63114;SDS011;49208;50.874;6.466;2022-11-30T18:53:37;36.30;;;17.65;;
63114;SDS011;49208;50.874;6.466;2022-11-30T18:56:09;35.40;;;16.65;;
63114;SDS011;49208;50.874;6.466;2022-11-30T18:58:38;33.10;;;17.27;;
63114;SDS011;49208;50.874;6.466;2022-11-30T19:01:08;42.00;;;19.27;;
63114;SDS011;49208;50.874;6.466;2022-11-30T19:03:37;33.85;;;18.08;;
63114;SDS011;49208;50.874;6.466;2022-11-30T19:06:03;37.17;;;17.92;;
63114;SDS011;49208;50.874;6.466;2022-11-30T19:08:30;40.22;;;16.65;;
63114;SDS011;49208;50.874;6.466;2022-11-30T19:11:00;40.80;;;19.95;;
63114;SDS011;49208;50.874;6.466;2022-11-30T19:13:26;47.58;;;22.90;;
63114;SDS011;49208;50.874;6.466;2022-11-30T19:15:52;45.03;;;24.73;;
63114;SDS011;49208;50.874;6.466;2022-11-30T19:18:17;45.85;;;21.10;;
63114;SDS011;49208;50.874;6.466;2022-11-30T19:20:43;40.10;;;19.20;;
63114;SDS011;49208;50.874;6.466;2022-11-30T19:23:10;49.78;;;21.00;;
63114;SDS011;49208;50.874;6.466;2022-11-30T19:25:35;41.17;;;21.25;;
63114;SDS011;49208;50.874;6.466;2022-11-30T19:28:01;48.65;;;23.80;;
63114;SDS011;49208;50.874;6.466;2022-11-30T19:30:26;55.35;;;23.65;;
63114;SDS011;49208;50.874;6.466;2022-11-30T19:32:52;45.70;;;20.88;;
63114;SDS011;49208;50.874;6.466;2022-11-30T19:35:17;44.85;;;21.05;;
63114;SDS011;49208;50.874;6.466;2022-11-30T19:37:43;49.10;;;22.38;;
63114;SDS011;49208;50.874;6.466;2022-11-30T19:40:08;49.17;;;22.70;;
63114;SDS011;49208;50.874;6.466;2022-11-30T19:42:34;45.17;;;23.30;;
63114;SDS011;49208;50.874;6.466;2022-11-30T19:45:00;50.17;;;22.67;;
63114;SDS011;49208;50.874;6.466;2022-11-30T19:47:25;49.70;;;24.63;;
63114;SDS011;49208;50.874;6.466;2022-11-30T19:49:51;52.40;;;23.52;;
63114;SDS011;49208;50.874;6.466;2022-11-30T19:52:16;56.88;;;24.35;;
63114;SDS011;49208;50.874;6.466;2022-11-30T19:54:41;57.58;;;25.00;;
63114;SDS011;49208;50.874;6.466;2022-11-30T19:57:07;57.05;;;24.88;;
63114;SDS011;49208;50.874;6.466;2022-11-30T19:59:32;56.42;;;25.63;;
63114;SDS011;49208;50.874;6.466;2022-11-30T20:01:57;53.10;;;23.88;;
63114;SDS011;49208;50.874;6.466;2022-11-30T20:04:23;53.10;;;24.00;;
63114;SDS011;49208;50.874;6.466;2022-11-30T20:06:48;51.83;;;25.52;;
63114;SDS011;49208;50.874;6.466;2022-11-30T20:09:14;53.40;;;24.88;;
63114;SDS011;49208;50.874;6.466;2022-11-30T20:11:39;53.65;;;24.15;;
63114;SDS011;49208;50.874;6.466;2022-11-30T20:14:05;57.92;;;26.05;;
63114;SDS011;49208;50.874;6.466;2022-11-30T20:16:30;57.40;;;27.77;;
63114;SDS011;49208;50.874;6.466;2022-11-30T20:18:59;59.47;;;25.50;;
63114;SDS011;49208;50.874;6.466;2022-11-30T20:21:27;56.83;;;25.70;;
63114;SDS011;49208;50.874;6.466;2022-11-30T20:23:55;51.13;;;24.75;;
63114;SDS011;49208;50.874;6.466;2022-11-30T20:26:44;56.78;;;24.15;;
63114;SDS011;49208;50.874;6.466;2022-11-30T20:29:13;54.80;;;23.42;;
63114;SDS011;49208;50.874;6.466;2022-11-30T20:31:40;55.05;;;23.90;;
63114;SDS011;49208;50.874;6.466;2022-11-30T20:34:06;55.85;;;26.23;;
63114;SDS011;49208;50.874;6.466;2022-11-30T20:36:32;56.47;;;24.88;;
63114;SDS011;49208;50.874;6.466;2022-11-30T20:38:58;48.00;;;24.38;;
63114;SDS011;49208;50.874;6.466;2022-11-30T20:41:24;58.30;;;24.90;;
63114;SDS011;49208;50.874;6.466;2022-11-30T20:43:50;52.95;;;23.17;;
63114;SDS011;49208;50.874;6.466;2022-11-30T20:46:23;55.67;;;23.90;;
63114;SDS011;49208;50.874;6.466;2022-11-30T20:48:51;62.65;;;26.40;;
63114;SDS011;49208;50.874;6.466;2022-11-30T20:51:27;66.10;;;26.40;;
63114;SDS011;49208;50.874;6.466;2022-11-30T20:54:02;58.55;;;28.67;;
63114;SDS011;49208;50.874;6.466;2022-11-30T20:56:31;62.08;;;26.63;;
63114;SDS011;49208;50.874;6.466;2022-11-30T20:59:00;64.25;;;27.15;;
63114;SDS011;49208;50.874;6.466;2022-11-30T21:01:27;61.65;;;26.85;;
63114;SDS011;49208;50.874;6.466;2022-11-30T21:03:53;64.07;;;26.65;;
63114;SDS011;49208;50.874;6.466;2022-11-30T21:06:18;61.42;;;26.15;;
63114;SDS011;49208;50.874;6.466;2022-11-30T21:08:43;72.72;;;27.23;;
63114;SDS011;49208;50.874;6.466;2022-11-30T21:11:10;68.53;;;28.42;;
63114;SDS011;49208;50.874;6.466;2022-11-30T21:13:38;65.15;;;27.08;;
63114;SDS011;49208;50.874;6.466;2022-11-30T21:16:04;65.80;;;26.23;;
63114;SDS011;49208;50.874;6.466;2022-11-30T21:18:33;61.08;;;27.13;;
63114;SDS011;49208;50.874;6.466;2022-11-30T21:21:00;62.92;;;26.90;;
63114;SDS011;49208;50.874;6.466;2022-11-30T21:23:27;60.72;;;26.00;;
63114;SDS011;49208;50.874;6.466;2022-11-30T21:25:52;66.60;;;26.90;;
63114;SDS011;49208;50.874;6.466;2022-11-30T21:28:18;59.13;;;25.02;;
63114;SDS011;49208;50.874;6.466;2022-11-30T21:30:45;56.72;;;27.88;;
63114;SDS011;49208;50.874;6.466;2022-11-30T21:33:10;54.78;;;26.02;;
63114;SDS011;49208;50.874;6.466;2022-11-30T21:35:36;59.55;;;25.52;;
63114;SDS011;49208;50.874;6.466;2022-11-30T21:38:02;53.00;;;23.52;;
63114;SDS011;49208;50.874;6.466;2022-11-30T21:40:27;53.92;;;23.95;;
63114;SDS011;49208;50.874;6.466;2022-11-30T21:42:53;47.50;;;21.20;;
63114;SDS011;49208;50.874;6.466;2022-11-30T21:45:18;52.70;;;21.67;;
63114;SDS011;49208;50.874;6.466;2022-11-30T21:47:44;46.58;;;20.67;;
63114;SDS011;49208;50.874;6.466;2022-11-30T21:50:09;49.85;;;22.13;;
63114;SDS011;49208;50.874;6.466;2022-11-30T21:52:34;48.92;;;21.83;;
63114;SDS011;49208;50.874;6.466;2022-11-30T21:55:00;50.35;;;20.40;;
63114;SDS011;49208;50.874;6.466;2022-11-30T21:57:25;44.17;;;19.77;;
63114;SDS011;49208;50.874;6.466;2022-11-30T21:59:51;43.10;;;19.45;;
63114;SDS011;49208;50.874;6.466;2022-11-30T22:02:16;44.35;;;18.90;;
63114;SDS011;49208;50.874;6.466;2022-11-30T22:04:42;48.25;;;20.42;;
63114;SDS011;49208;50.874;6.466;2022-11-30T22:07:09;46.85;;;20.67;;
63114;SDS011;49208;50.874;6.466;2022-11-30T22:09:36;39.85;;;16.65;;
63114;SDS011;49208;50.874;6.466;2022-11-30T22:12:02;48.22;;;19.15;;
63114;SDS011;49208;50.874;6.466;2022-11-30T22:14:27;38.55;;;17.27;;
63114;SDS011;49208;50.874;6.466;2022-11-30T22:16:53;44.05;;;19.13;;
63114;SDS011;49208;50.874;6.466;2022-11-30T22:19:18;43.70;;;19.38;;
63114;SDS011;49208;50.874;6.466;2022-11-30T22:21:44;40.67;;;17.02;;
63114;SDS011;49208;50.874;6.466;2022-11-30T22:24:10;38.47;;;18.02;;
63114;SDS011;49208;50.874;6.466;2022-11-30T22:26:37;36.80;;;16.90;;
63114;SDS011;49208;50.874;6.466;2022-11-30T22:29:12;42.53;;;18.02;;
63114;SDS011;49208;50.874;6.466;2022-11-30T22:31:40;33.63;;;16.17;;
63114;SDS011;49208;50.874;6.466;2022-11-30T22:34:07;38.50;;;16.85;;
63114;SDS011;49208;50.874;6.466;2022-11-30T22:36:34;35.30;;;15.88;;
63114;SDS011;49208;50.874;6.466;2022-11-30T22:41:30;36.35;;;17.30;;
63114;SDS011;49208;50.874;6.466;2022-11-30T22:43:56;37.72;;;16.35;;
63114;SDS011;49208;50.874;6.466;2022-11-30T22:46:23;31.33;;;14.30;;